Time;durP1;ratioP1;P1;durP2;ratioP2;P2;SDS_P1;SDS_P2;PMS_P1;PMS_P2;Temp;Humidity;BMP_temperature;BMP_pressure;BME280_temperature;BME280_humidity;BME280_pressure;Samples;Min_cycle;Max_cycle;Signal;HPM_P1;HPM_P2
2021/07/22 05:54:17;;;;;;;13.63;10.33;;;;;;;;;;10609359;27;20112;-84
2021/07/22 05:59:19;;;;;;;16.50;11.82;;;;;;;;;;10613561;28;20099;-83
2021/07/22 06:04:20;;;;;;;12.85;9.30;;;;;;;;;;10610266;28;20031;-83
2021/07/22 06:09:21;;;;;;;14.90;9.32;;;;;;;;;;10584608;28;20023;-83
2021/07/22 06:14:22;;;;;;;13.90;8.65;;;;;;;;;;10587182;28;20035;-84
2021/07/22 06:19:24;;;;;;;12.13;9.65;;;;;;;;;;10601292;28;20480;-84
2021/07/22 06:24:25;;;;;;;9.07;7.20;;;;;;;;;;10593288;28;20024;-84
2021/07/22 06:29:26;;;;;;;17.52;11.18;;;;;;;;;;10593699;28;20035;-82
2021/07/22 06:34:50;;;;;;;12.23;8.70;;;;;;;;;;10543123;22;20516;-86
2021/07/22 06:40:17;;;;;;;9.90;8.00;;;;;;;;;;10485133;28;20155;-86
2021/07/22 06:51:10;;;;;;;14.18;9.15;;;;;;;;;;10493985;28;20033;-86
2021/07/22 07:02:08;;;;;;;11.25;8.82;;;;;;;;;;10520219;28;20029;-87
2021/07/22 07:07:19;;;;;;;10.63;6.88;;;;;;;;;;10502003;28;20021;-85
2021/07/22 07:12:24;;;;;;;9.70;7.43;;;;;;;;;;10482118;28;20041;-86
2021/07/22 07:17:25;;;;;;;10.70;7.45;;;;;;;;;;10500121;28;20021;-86
2021/07/22 07:22:27;;;;;;;10.68;7.97;;;;;;;;;;10489110;28;20029;-86
2021/07/22 07:27:35;;;;;;;13.32;8.40;;;;;;;;;;10474274;28;20025;-84
2021/07/22 07:32:36;;;;;;;10.77;8.15;;;;;;;;;;10476206;28;20148;-84
2021/07/22 07:37:37;;;;;;;12.68;8.55;;;;;;;;;;10493090;28;20410;-84
2021/07/22 07:42:39;;;;;;;9.98;8.25;;;;;;;;;;10479807;28;20025;-83
2021/07/22 07:47:40;;;;;;;10.60;8.27;;;;;;;;;;10462702;28;20498;-83
2021/07/22 07:52:41;;;;;;;12.48;8.52;;;;;;;;;;10495219;28;20125;-83
2021/07/22 07:57:42;;;;;;;11.05;8.25;;;;;;;;;;10478566;28;20390;-83
2021/07/22 08:02:47;;;;;;;12.02;9.10;;;;;;;;;;10493847;28;20032;-83
2021/07/22 08:07:48;;;;;;;12.02;9.55;;;;;;;;;;10489543;28;20104;-84
2021/07/22 08:12:49;;;;;;;14.88;9.18;;;;;;;;;;10492711;28;20025;-84
2021/07/22 08:17:50;;;;;;;14.93;9.93;;;;;;;;;;10491696;28;20102;-85
2021/07/22 08:22:51;;;;;;;12.80;9.70;;;;;;;;;;10490363;28;20047;-86
2021/07/22 08:27:52;;;;;;;15.77;11.80;;;;;;;;;;10490169;28;20520;-84
2021/07/22 08:32:53;;;;;;;13.63;9.82;;;;;;;;;;10491017;28;20040;-85
2021/07/22 08:37:54;;;;;;;11.25;9.40;;;;;;;;;;10488922;28;20491;-84
2021/07/22 08:43:00;;;;;;;19.70;13.95;;;;;;;;;;10486366;28;20028;-84
2021/07/22 08:48:01;;;;;;;16.17;11.13;;;;;;;;;;10486733;28;20393;-86
2021/07/22 08:53:02;;;;;;;22.88;14.70;;;;;;;;;;10481303;28;20041;-83
2021/07/22 08:58:03;;;;;;;15.75;11.07;;;;;;;;;;10485871;28;20028;-85
2021/07/22 09:03:05;;;;;;;16.40;12.15;;;;;;;;;;10491482;28;20029;-86
2021/07/22 09:08:07;;;;;;;19.35;14.05;;;;;;;;;;10494186;28;20028;-84
2021/07/22 09:13:22;;;;;;;21.77;15.38;;;;;;;;;;10489450;28;20099;-85
2021/07/22 09:18:31;;;;;;;18.35;14.00;;;;;;;;;;10489838;28;20092;-84
2021/07/22 09:23:32;;;;;;;17.02;13.13;;;;;;;;;;10507114;28;20025;-85
2021/07/22 09:28:33;;;;;;;21.13;16.05;;;;;;;;;;10494853;28;20028;-85
2021/07/22 09:33:39;;;;;;;16.85;13.82;;;;;;;;;;10489789;28;20052;-85
2021/07/22 09:38:39;;;;;;;18.13;12.95;;;;;;;;;;10490275;28;20056;-85
2021/07/22 09:43:41;;;;;;;17.20;12.18;;;;;;;;;;10489903;28;20037;-85
2021/07/22 09:49:01;;;;;;;18.65;13.52;;;;;;;;;;10491493;28;20025;-84
2021/07/22 09:54:07;;;;;;;16.27;11.27;;;;;;;;;;10490880;28;20047;-83
2021/07/22 09:59:09;;;;;;;17.67;11.10;;;;;;;;;;10487711;28;20048;-84
2021/07/22 10:04:10;;;;;;;14.80;11.82;;;;;;;;;;10487902;28;20031;-85
2021/07/22 10:09:12;;;;;;;25.00;19.25;;;;;;;;;;10489894;28;20025;-85
2021/07/22 10:14:14;;;;;;;15.63;12.98;;;;;;;;;;10486701;28;20032;-86
2021/07/22 10:19:19;;;;;;;16.13;11.95;;;;;;;;;;10486144;28;20032;-86
2021/07/22 10:24:21;;;;;;;14.32;11.45;;;;;;;;;;10484588;28;20433;-85
2021/07/22 10:29:22;;;;;;;16.30;12.55;;;;;;;;;;10490870;28;20482;-84
2021/07/22 10:34:23;;;;;;;19.38;12.40;;;;;;;;;;10486157;28;20037;-86
2021/07/22 10:39:53;;;;;;;18.80;13.75;;;;;;;;;;10503191;28;20367;-83
2021/07/22 10:44:54;;;;;;;20.65;15.02;;;;;;;;;;10475235;28;20036;-84
2021/07/22 10:49:55;;;;;;;15.98;11.10;;;;;;;;;;10490747;28;20028;-85
2021/07/22 10:54:56;;;;;;;18.48;12.65;;;;;;;;;;10491957;28;20051;-83
2021/07/22 10:59:57;;;;;;;16.83;13.90;;;;;;;;;;10493913;28;20124;-86
2021/07/22 11:04:58;;;;;;;16.30;13.00;;;;;;;;;;10495382;28;20025;-83
2021/07/22 11:09:59;;;;;;;17.05;13.43;;;;;;;;;;10493368;28;20025;-85
2021/07/22 11:15:02;;;;;;;16.17;10.90;;;;;;;;;;10489945;28;20340;-85
2021/07/22 11:20:32;;;;;;;17.17;12.23;;;;;;;;;;10490452;28;20021;-86
2021/07/22 11:25:33;;;;;;;;;;;;;;;;;;10466710;28;20029;-85
2021/07/22 11:30:54;;;;;;;18.55;13.25;;;;;;;;;;10487958;28;19960;-83
2021/07/22 11:35:56;;;;;;;15.43;11.05;;;;;;;;;;10485151;28;20440;-85
2021/07/22 11:41:17;;;;;;;19.75;15.18;;;;;;;;;;10471228;28;20099;-86
2021/07/22 11:52:01;;;;;;;16.70;11.00;;;;;;;;;;10489037;28;20033;-84
2021/07/22 11:57:02;;;;;;;13.45;9.32;;;;;;;;;;10482530;28;20033;-84
2021/07/22 12:02:05;;;;;;;10.38;9.25;;;;;;;;;;10487651;28;20097;-86
2021/07/22 12:30:17;;;;;;;9.15;7.85;;;;;;;;;;10471994;28;20031;-85
2021/07/22 12:35:56;;;;;;;9.57;7.88;;;;;;;;;;10528386;22;20086;-84
2021/07/22 12:41:05;;;;;;;10.75;8.63;;;;;;;;;;10460784;28;20055;-84
2021/07/22 12:46:18;;;;;;;10.30;8.60;;;;;;;;;;10460514;28;20025;-83
2021/07/22 12:51:23;;;;;;;9.65;7.85;;;;;;;;;;10465176;28;20029;-83
2021/07/22 12:56:24;;;;;;;11.77;8.18;;;;;;;;;;10464308;28;20025;-83
2021/07/22 13:01:25;;;;;;;9.23;8.23;;;;;;;;;;10463715;28;20574;-85
2021/07/22 13:06:28;;;;;;;7.43;6.60;;;;;;;;;;10463054;28;20025;-83
2021/07/22 13:11:32;;;;;;;9.27;7.60;;;;;;;;;;10462586;28;20021;-83
2021/07/22 13:17:00;;;;;;;8.90;7.10;;;;;;;;;;10463755;28;20029;-84
2021/07/22 13:22:02;;;;;;;9.90;7.53;;;;;;;;;;10463301;28;20467;-82
2021/07/22 13:27:05;;;;;;;11.35;8.38;;;;;;;;;;10468442;28;20139;-84
2021/07/22 13:32:12;;;;;;;11.85;8.68;;;;;;;;;;10467103;28;20108;-83
2021/07/22 13:37:14;;;;;;;10.77;8.48;;;;;;;;;;10466080;28;20041;-83
2021/07/22 13:42:19;;;;;;;14.00;11.32;;;;;;;;;;10469565;28;20407;-83
2021/07/22 13:47:26;;;;;;;11.63;8.13;;;;;;;;;;10466089;28;20029;-83
2021/07/22 13:52:28;;;;;;;10.55;7.57;;;;;;;;;;10452826;28;20059;-82
2021/07/22 13:57:30;;;;;;;7.85;6.57;;;;;;;;;;10467622;28;20029;-83
2021/07/22 14:02:32;;;;;;;7.10;6.40;;;;;;;;;;10466986;28;20029;-83
2021/07/22 14:07:36;;;;;;;8.48;6.50;;;;;;;;;;10467027;28;20028;-83
2021/07/22 14:12:41;;;;;;;9.82;6.78;;;;;;;;;;10472878;28;20029;-84
2021/07/22 14:17:59;;;;;;;8.68;6.43;;;;;;;;;;10475659;28;20086;-84
2021/07/22 14:23:00;;;;;;;7.18;6.28;;;;;;;;;;10481309;28;20029;-82
2021/07/22 14:28:02;;;;;;;8.70;6.90;;;;;;;;;;10495536;28;20089;-83
2021/07/22 14:33:07;;;;;;;6.82;6.03;;;;;;;;;;10493179;28;20580;-82
2021/07/22 14:38:13;;;;;;;9.45;6.32;;;;;;;;;;10469096;28;20025;-82
2021/07/22 14:43:20;;;;;;;6.82;6.10;;;;;;;;;;10472762;28;20427;-81
2021/07/22 14:48:21;;;;;;;8.30;6.10;;;;;;;;;;10503455;28;20021;-83
2021/07/22 14:53:35;;;;;;;8.05;6.50;;;;;;;;;;10504688;28;20025;-83
2021/07/22 14:58:39;;;;;;;6.78;5.85;;;;;;;;;;10492871;28;20025;-84
2021/07/22 15:09:51;;;;;;;6.28;5.68;;;;;;;;;;10456145;28;20029;-85
2021/07/22 15:26:33;;;;;;;7.68;5.70;;;;;;;;;;10469579;28;20040;-83
2021/07/22 15:43:35;;;;;;;6.45;5.60;;;;;;;;;;10423719;28;20037;-84
2021/07/22 16:17:17;;;;;;;7.38;5.88;;;;;;;;;;10439471;28;20029;-83
2021/07/22 16:22:27;;;;;;;9.70;7.15;;;;;;;;;;10470113;28;20068;-84
2021/07/22 16:27:28;;;;;;;8.40;6.22;;;;;;;;;;10466169;28;20100;-83
2021/07/22 16:38:24;;;;;;;7.53;6.17;;;;;;;;;;10476285;28;20025;-84
2021/07/22 16:43:31;;;;;;;7.13;6.25;;;;;;;;;;10474242;28;20116;-84
2021/07/22 16:48:32;;;;;;;8.23;6.35;;;;;;;;;;10474259;28;20021;-83
2021/07/22 16:53:34;;;;;;;6.68;5.72;;;;;;;;;;10470425;28;20036;-84
2021/07/22 16:58:39;;;;;;;7.50;6.15;;;;;;;;;;10470009;28;20033;-83
2021/07/22 17:03:41;;;;;;;6.68;5.97;;;;;;;;;;10472235;28;20025;-83
2021/07/22 17:08:42;;;;;;;7.18;6.00;;;;;;;;;;10470002;28;20021;-83
2021/07/22 17:13:44;;;;;;;7.32;6.10;;;;;;;;;;10473164;28;20112;-83
2021/07/22 17:18:45;;;;;;;9.05;6.28;;;;;;;;;;10461369;28;20023;-86
2021/07/22 17:23:46;;;;;;;8.18;6.97;;;;;;;;;;10458645;28;20468;-86
2021/07/22 17:28:47;;;;;;;10.25;6.55;;;;;;;;;;10457957;28;20372;-86
2021/07/22 17:33:48;;;;;;;8.52;6.28;;;;;;;;;;10457978;28;20029;-86
2021/07/22 17:38:56;;;;;;;8.30;6.50;;;;;;;;;;10458873;28;20201;-86
2021/07/22 17:44:01;;;;;;;9.70;6.72;;;;;;;;;;10459964;28;20029;-86
2021/07/22 17:49:03;;;;;;;8.32;6.35;;;;;;;;;;10460547;28;20025;-86
2021/07/22 17:54:06;;;;;;;7.40;5.70;;;;;;;;;;10462225;28;20036;-86
2021/07/22 17:59:07;;;;;;;7.20;5.80;;;;;;;;;;10475402;28;20028;-85
2021/07/22 18:04:11;;;;;;;7.15;6.13;;;;;;;;;;10504271;28;20062;-84
2021/07/22 18:09:15;;;;;;;6.03;5.43;;;;;;;;;;10487053;28;20025;-86
2021/07/22 18:14:16;;;;;;;7.32;6.20;;;;;;;;;;10458251;28;20407;-86
2021/07/22 18:19:17;;;;;;;8.48;6.20;;;;;;;;;;10457393;28;20025;-86
2021/07/22 18:24:22;;;;;;;7.88;6.72;;;;;;;;;;10458342;28;20394;-86
2021/07/22 18:29:28;;;;;;;6.80;5.78;;;;;;;;;;10453321;28;20491;-86
2021/07/22 18:40:38;;;;;;;9.68;6.60;;;;;;;;;;10483675;28;20037;-81
2021/07/22 18:45:42;;;;;;;7.22;6.20;;;;;;;;;;10479647;28;20021;-81
2021/07/22 18:50:46;;;;;;;8.65;6.40;;;;;;;;;;10477271;28;20128;-83
2021/07/22 18:55:48;;;;;;;6.68;6.00;;;;;;;;;;10478156;28;20033;-82
2021/07/22 19:01:12;;;;;;;12.82;5.93;;;;;;;;;;10429133;28;20041;-82
2021/07/22 19:06:18;;;;;;;9.60;6.20;;;;;;;;;;10434459;28;20029;-82
2021/07/22 19:11:22;;;;;;;6.78;5.70;;;;;;;;;;10486555;28;20052;-82
2021/07/22 19:16:41;;;;;;;6.28;5.38;;;;;;;;;;10466619;28;20037;-81
2021/07/22 19:21:43;;;;;;;6.25;4.85;;;;;;;;;;10483843;28;20025;-84
2021/07/22 19:26:49;;;;;;;7.20;5.63;;;;;;;;;;10484238;28;20050;-81
2021/07/22 19:37:47;;;;;;;5.35;4.85;;;;;;;;;;10488160;28;20478;-82
2021/07/22 19:43:30;;;;;;;8.25;5.00;;;;;;;;;;10401172;28;20030;-82
2021/07/22 19:48:43;;;;;;;5.22;4.43;;;;;;;;;;10401108;28;20164;-83
2021/07/22 19:54:08;;;;;;;8.07;5.25;;;;;;;;;;10396799;28;20044;-82
2021/07/22 19:59:50;;;;;;;10.37;5.30;;;;;;;;;;10399748;28;20018;-84
2021/07/22 20:04:53;;;;;;;5.80;5.20;;;;;;;;;;10393034;28;20494;-83
2021/07/22 20:09:56;;;;;;;5.90;5.30;;;;;;;;;;10373250;28;20064;-83
2021/07/22 20:15:01;;;;;;;6.78;4.93;;;;;;;;;;10390116;28;20046;-83
